Time;durP1;ratioP1;P1;durP2;ratioP2;P2;SDS_P1;SDS_P2;PMS_P1;PMS_P2;Temp;Humidity;BMP_temperature;BMP_pressure;BME280_temperature;BME280_humidity;BME280_pressure;Samples;Min_cycle;Max_cycle;Signal;HPM_P1;HPM_P2
2021/10/10 00:01:04;;;;;;;16.80;8.47;;;9.70;99.90;;;;;;5018004;28;20561;-80
2021/10/10 00:03:30;;;;;;;11.30;9.70;;;9.70;99.90;;;;;;5018461;28;20455;-82
2021/10/10 00:05:56;;;;;;;19.63;10.70;;;9.70;99.90;;;;;;5018065;28;20396;-82
2021/10/10 00:08:22;;;;;;;14.30;10.00;;;9.70;99.90;;;;;;5018530;28;20606;-81
2021/10/10 00:10:48;;;;;;;13.37;8.97;;;9.70;99.90;;;;;;5018092;28;20162;-82
2021/10/10 00:13:14;;;;;;;11.43;8.27;;;9.60;99.90;;;;;;5016741;28;20397;-81
2021/10/10 00:15:40;;;;;;;11.70;9.57;;;9.60;99.90;;;;;;5018058;28;20400;-82
2021/10/10 00:18:07;;;;;;;14.27;10.83;;;9.60;99.90;;;;;;5016215;28;20424;-82
2021/10/10 00:20:33;;;;;;;14.07;10.30;;;9.50;99.90;;;;;;5017655;28;20458;-81
2021/10/10 00:22:59;;;;;;;15.00;10.00;;;9.50;99.90;;;;;;5018039;28;20432;-82
2021/10/10 00:25:25;;;;;;;12.77;9.57;;;9.50;99.90;;;;;;5018330;28;20404;-82
2021/10/10 00:27:50;;;;;;;11.00;9.07;;;9.40;99.90;;;;;;5017736;28;20509;-81
2021/10/10 00:30:18;;;;;;;14.40;9.67;;;9.50;99.90;;;;;;5018002;28;20388;-81
2021/10/10 00:32:44;;;;;;;12.23;9.90;;;9.40;99.90;;;;;;5017067;28;20697;-82
2021/10/10 00:35:10;;;;;;;16.37;9.53;;;9.30;99.90;;;;;;5018383;28;20400;-81
2021/10/10 00:37:36;;;;;;;18.43;9.73;;;9.30;99.90;;;;;;5017737;28;20175;-80
2021/10/10 00:40:03;;;;;;;10.43;9.00;;;9.20;99.90;;;;;;5017717;28;20208;-80
2021/10/10 00:42:29;;;;;;;12.70;8.37;;;9.30;99.90;;;;;;5017623;28;20220;-81
2021/10/10 00:44:54;;;;;;;15.03;9.87;;;9.30;99.90;;;;;;5018437;28;20477;-80
2021/10/10 00:47:20;;;;;;;15.93;10.60;;;9.20;99.90;;;;;;5031676;28;20225;-81
2021/10/10 00:49:46;;;;;;;14.90;10.63;;;9.30;99.90;;;;;;5023777;28;20161;-81
2021/10/10 00:52:16;;;;;;;11.40;9.00;;;9.30;99.90;;;;;;5016185;28;20479;-81
2021/10/10 00:54:45;;;;;;;13.30;9.80;;;9.30;99.90;;;;;;5018295;28;20251;-81
2021/10/10 00:57:12;;;;;;;14.00;9.83;;;9.30;99.90;;;;;;5017666;28;20392;-81
2021/10/10 00:59:38;;;;;;;10.67;8.23;;;9.30;99.90;;;;;;5017051;28;20440;-81
2021/10/10 01:02:04;;;;;;;12.90;9.50;;;9.30;99.90;;;;;;5017023;28;20475;-81
2021/10/10 01:04:30;;;;;;;11.27;10.10;;;9.20;99.90;;;;;;5017307;28;20914;-81
2021/10/10 01:06:56;;;;;;;10.10;7.40;;;9.20;99.90;;;;;;5017602;28;20249;-81
2021/10/10 01:09:22;;;;;;;9.10;8.17;;;9.10;99.90;;;;;;5017668;28;20172;-81
2021/10/10 01:11:48;;;;;;;13.30;9.47;;;9.10;99.90;;;;;;5016893;28;20296;-81
2021/10/10 01:14:14;;;;;;;11.30;9.00;;;9.10;99.90;;;;;;5017525;28;20767;-82
2021/10/10 01:16:43;;;;;;;10.70;9.13;;;9.00;99.90;;;;;;5017635;28;20391;-81
2021/10/10 01:19:09;;;;;;;12.30;9.13;;;9.00;99.90;;;;;;5018232;28;20396;-81
2021/10/10 01:21:35;;;;;;;12.13;9.90;;;9.00;99.90;;;;;;5017926;28;20499;-81
2021/10/10 01:24:03;;;;;;;13.70;10.13;;;8.90;99.90;;;;;;5018233;28;20636;-81
2021/10/10 01:26:30;;;;;;;12.80;10.53;;;8.80;99.90;;;;;;5019064;28;20393;-82
2021/10/10 01:28:56;;;;;;;12.50;8.47;;;8.80;99.90;;;;;;5018390;28;20439;-81
2021/10/10 01:31:22;;;;;;;13.47;10.47;;;8.90;99.90;;;;;;5018189;28;20397;-82
2021/10/10 01:33:48;;;;;;;14.23;10.53;;;8.90;99.90;;;;;;5001268;28;20416;-82
2021/10/10 01:36:14;;;;;;;18.80;11.43;;;8.80;99.90;;;;;;5019264;28;20166;-81
2021/10/10 01:38:41;;;;;;;15.63;10.20;;;8.80;99.90;;;;;;5018247;28;20641;-82
2021/10/10 01:41:08;;;;;;;10.70;9.10;;;8.80;99.90;;;;;;5000999;28;20440;-81
2021/10/10 01:43:34;;;;;;;15.30;9.07;;;8.70;99.90;;;;;;5017011;28;20390;-82
2021/10/10 01:46:00;;;;;;;12.40;8.97;;;8.80;99.90;;;;;;5017541;28;20400;-81
2021/10/10 01:48:26;;;;;;;15.73;10.27;;;8.70;99.90;;;;;;5016831;28;20443;-81
2021/10/10 01:50:52;;;;;;;14.23;9.93;;;8.70;99.90;;;;;;5018610;28;20169;-81
2021/10/10 01:53:18;;;;;;;14.83;8.70;;;8.70;99.90;;;;;;5020729;28;20392;-80
2021/10/10 01:55:44;;;;;;;15.10;10.27;;;8.70;99.90;;;;;;5020091;28;20162;-79
2021/10/10 01:58:11;;;;;;;9.33;7.97;;;8.70;99.90;;;;;;5021064;28;20165;-82
2021/10/10 02:00:38;;;;;;;13.30;9.17;;;8.70;99.90;;;;;;5020650;28;20786;-82
2021/10/10 02:03:04;;;;;;;11.60;8.87;;;8.70;99.90;;;;;;5020636;28;20850;-82
2021/10/10 02:05:30;;;;;;;9.90;7.77;;;8.60;99.90;;;;;;5020599;28;20393;-82
2021/10/10 02:07:56;;;;;;;13.20;10.07;;;8.70;99.90;;;;;;5019396;28;20492;-82
2021/10/10 02:10:22;;;;;;;21.30;9.50;;;8.60;99.90;;;;;;5020415;28;20384;-81
2021/10/10 02:12:48;;;;;;;13.20;9.40;;;8.60;99.90;;;;;;5020437;28;20385;-82
2021/10/10 02:15:14;;;;;;;8.20;7.40;;;8.50;99.90;;;;;;5020325;28;20455;-81
2021/10/10 02:17:40;;;;;;;12.27;9.40;;;8.50;99.90;;;;;;5020246;28;20505;-81
2021/10/10 02:20:07;;;;;;;14.20;8.33;;;8.50;99.90;;;;;;5020626;28;20280;-81
2021/10/10 02:22:33;;;;;;;9.10;7.90;;;8.50;99.90;;;;;;5020139;28;20200;-81
2021/10/10 02:24:59;;;;;;;15.17;9.23;;;8.50;99.90;;;;;;5020824;28;20401;-81
2021/10/10 02:27:25;;;;;;;9.67;8.30;;;8.60;99.90;;;;;;5021959;28;20158;-81
2021/10/10 02:29:51;;;;;;;9.60;7.93;;;8.60;99.90;;;;;;5004524;28;20409;-81
2021/10/10 02:32:16;;;;;;;8.93;7.20;;;8.60;99.90;;;;;;5019435;28;20225;-82
2021/10/10 02:34:42;;;;;;;18.40;8.80;;;8.40;99.90;;;;;;5020147;28;20162;-81
2021/10/10 02:37:08;;;;;;;14.40;8.20;;;8.40;99.90;;;;;;5019924;28;20174;-82
2021/10/10 02:39:36;;;;;;;16.33;8.37;;;8.50;99.90;;;;;;5019950;28;20653;-81
2021/10/10 02:42:04;;;;;;;13.53;8.90;;;8.40;99.90;;;;;;5019721;28;20804;-81
2021/10/10 02:44:30;;;;;;;8.97;7.50;;;8.40;99.90;;;;;;5019427;28;20874;-82
2021/10/10 02:46:56;;;;;;;18.13;9.47;;;8.30;99.90;;;;;;5018224;28;20403;-81
2021/10/10 02:49:22;;;;;;;10.47;8.10;;;8.20;99.90;;;;;;5020857;28;20420;-82
2021/10/10 02:51:47;;;;;;;17.17;8.50;;;8.20;99.90;;;;;;5020565;28;20219;-82
2021/10/10 02:54:16;;;;;;;12.43;8.40;;;8.20;99.90;;;;;;5021459;28;20160;-81
2021/10/10 02:56:42;;;;;;;12.67;8.20;;;8.20;99.90;;;;;;5021034;28;20393;-82
2021/10/10 02:59:08;;;;;;;9.67;7.70;;;8.30;99.90;;;;;;5020727;28;20278;-82
2021/10/10 03:01:33;;;;;;;15.13;8.00;;;8.20;99.90;;;;;;5026956;28;20173;-81
2021/10/10 03:04:00;;;;;;;18.80;8.27;;;8.30;99.90;;;;;;5019255;28;20575;-79
2021/10/10 03:06:26;;;;;;;15.20;9.20;;;8.30;99.90;;;;;;5017857;28;20162;-81
2021/10/10 03:08:52;;;;;;;12.20;8.73;;;8.30;99.90;;;;;;5017271;28;20443;-79
2021/10/10 03:11:18;;;;;;;14.33;8.70;;;8.30;99.90;;;;;;5019181;28;20393;-81
2021/10/10 03:13:45;;;;;;;13.63;8.27;;;8.20;99.90;;;;;;5019322;28;20162;-82
2021/10/10 03:16:11;;;;;;;14.80;7.80;;;8.20;99.90;;;;;;5019546;28;20396;-81
2021/10/10 03:18:36;;;;;;;13.30;7.73;;;8.20;99.90;;;;;;5020141;28;20736;-82
2021/10/10 03:21:03;;;;;;;15.87;10.60;;;8.20;99.90;;;;;;5018868;28;20212;-81
2021/10/10 03:23:31;;;;;;;14.03;8.70;;;8.00;99.90;;;;;;5017851;28;20161;-81
2021/10/10 03:25:57;;;;;;;16.77;9.10;;;8.00;99.90;;;;;;5018621;28;20396;-81
2021/10/10 03:28:22;;;;;;;11.00;8.30;;;8.00;99.90;;;;;;5018133;28;20393;-80
2021/10/10 03:30:48;;;;;;;10.93;8.20;;;8.00;99.90;;;;;;5016974;28;20657;-80
2021/10/10 03:33:14;;;;;;;9.70;7.10;;;8.00;99.90;;;;;;5018035;28;20217;-80
2021/10/10 03:35:40;;;;;;;13.97;8.10;;;8.10;99.90;;;;;;5018133;28;20216;-81
2021/10/10 03:38:06;;;;;;;15.03;9.40;;;8.10;99.90;;;;;;5017433;28;20166;-82
2021/10/10 03:40:32;;;;;;;14.10;9.00;;;8.10;99.90;;;;;;5018892;28;20792;-82
2021/10/10 03:42:58;;;;;;;11.20;9.20;;;8.00;99.90;;;;;;5017832;28;20555;-81
2021/10/10 03:45:24;;;;;;;11.53;7.97;;;8.00;99.90;;;;;;5016457;28;20475;-81
2021/10/10 03:47:50;;;;;;;12.07;7.90;;;8.00;99.90;;;;;;5010745;28;20492;-81
2021/10/10 03:50:16;;;;;;;9.37;6.93;;;8.00;99.90;;;;;;5017861;28;20475;-82
2021/10/10 03:52:42;;;;;;;14.53;7.97;;;7.90;99.90;;;;;;5017740;28;20536;-81
2021/10/10 03:55:26;;;;;;;13.00;7.33;;;7.90;99.90;;;;;;5017793;28;20177;-80
2021/10/10 03:57:53;;;;;;;10.67;8.17;;;7.80;99.90;;;;;;5018730;28;20396;-82
2021/10/10 04:00:21;;;;;;;12.33;7.67;;;7.80;99.90;;;;;;5019106;28;21003;-81
2021/10/10 04:02:47;;;;;;;8.80;7.67;;;7.80;99.90;;;;;;5018739;28;20823;-81
2021/10/10 04:05:21;;;;;;;10.53;7.30;;;7.70;99.90;;;;;;5017449;28;20388;-81
2021/10/10 04:07:48;;;;;;;13.77;8.57;;;7.70;99.90;;;;;;5026931;28;20399;-79
2021/10/10 04:10:15;;;;;;;12.10;7.60;;;7.60;99.90;;;;;;5032742;28;20873;-80
2021/10/10 04:12:41;;;;;;;11.33;8.13;;;7.50;99.90;;;;;;5017536;28;20420;-80
2021/10/10 04:15:07;;;;;;;10.33;8.30;;;7.60;99.90;;;;;;5017864;28;20903;-81
2021/10/10 04:17:33;;;;;;;16.73;8.27;;;7.60;99.90;;;;;;5016593;28;20565;-81
2021/10/10 04:19:59;;;;;;;12.00;8.00;;;7.60;99.90;;;;;;5017897;28;20512;-81
2021/10/10 04:22:25;;;;;;;14.17;8.33;;;7.50;99.90;;;;;;5017692;28;20204;-80
2021/10/10 04:24:51;;;;;;;8.73;6.90;;;7.50;99.90;;;;;;5017597;28;20397;-80
2021/10/10 04:27:16;;;;;;;9.17;7.70;;;7.50;99.90;;;;;;5017994;28;20190;-82
2021/10/10 04:29:42;;;;;;;9.57;7.97;;;7.50;99.90;;;;;;5018394;28;20195;-81
2021/10/10 04:32:08;;;;;;;11.80;8.20;;;7.40;99.90;;;;;;5018546;28;20255;-82
2021/10/10 04:34:34;;;;;;;10.10;7.67;;;7.40;99.90;;;;;;4999346;28;20399;-82
2021/10/10 04:37:00;;;;;;;9.80;7.50;;;7.30;99.90;;;;;;4999593;28;20522;-82
2021/10/10 04:39:25;;;;;;;6.90;6.00;;;7.20;99.90;;;;;;5016076;28;20238;-82
2021/10/10 04:41:51;;;;;;;13.10;8.37;;;7.20;99.90;;;;;;5015580;28;20217;-81
2021/10/10 04:44:17;;;;;;;10.70;7.73;;;7.30;99.90;;;;;;5015696;28;20209;-82
2021/10/10 04:46:43;;;;;;;14.63;7.50;;;7.30;99.90;;;;;;5014887;28;20165;-81
2021/10/10 04:49:08;;;;;;;15.53;6.37;;;7.30;99.90;;;;;;5015018;28;20724;-82
2021/10/10 04:51:34;;;;;;;12.97;7.43;;;7.30;99.90;;;;;;5014699;28;20229;-82
2021/10/10 04:54:00;;;;;;;9.73;7.50;;;7.20;99.90;;;;;;5014796;28;20188;-81
2021/10/10 04:56:26;;;;;;;8.80;6.43;;;7.20;99.90;;;;;;5015307;28;20157;-80
2021/10/10 04:58:51;;;;;;;12.80;8.43;;;7.20;99.90;;;;;;5014811;28;20248;-79
2021/10/10 05:01:18;;;;;;;11.10;7.43;;;7.20;99.90;;;;;;5015253;28;20221;-81
2021/10/10 05:03:43;;;;;;;13.53;7.30;;;7.20;99.90;;;;;;5015684;28;20551;-81
2021/10/10 05:06:09;;;;;;;15.80;7.90;;;7.10;99.90;;;;;;5016448;28;20413;-81
2021/10/10 05:08:35;;;;;;;7.10;6.13;;;7.10;99.90;;;;;;5018316;28;20200;-81
2021/10/10 05:11:01;;;;;;;6.03;5.43;;;7.10;99.90;;;;;;5019221;28;20173;-81
2021/10/10 05:13:27;;;;;;;10.37;7.03;;;7.10;99.90;;;;;;5017916;28;20173;-81
2021/10/10 05:15:53;;;;;;;9.30;7.43;;;7.10;99.90;;;;;;5019164;28;20423;-80
2021/10/10 05:18:18;;;;;;;7.80;6.93;;;7.00;99.90;;;;;;5018752;28;20251;-81
2021/10/10 05:20:44;;;;;;;9.67;6.30;;;7.10;99.90;;;;;;5017500;28;20217;-82
2021/10/10 05:23:14;;;;;;;11.57;6.37;;;7.00;99.90;;;;;;5016332;28;20161;-82
2021/10/10 05:25:41;;;;;;;7.53;6.27;;;7.00;99.90;;;;;;5019600;28;20651;-82
2021/10/10 05:28:07;;;;;;;7.90;6.93;;;6.90;99.90;;;;;;5022174;28;20403;-81
2021/10/10 05:30:33;;;;;;;8.93;8.03;;;6.90;99.90;;;;;;5021228;28;20432;-81
2021/10/10 05:33:00;;;;;;;13.10;6.80;;;6.90;99.90;;;;;;5022222;28;20496;-81
2021/10/10 05:35:26;;;;;;;10.50;7.27;;;6.80;99.90;;;;;;5023272;28;20170;-81
2021/10/10 05:37:51;;;;;;;6.97;6.00;;;6.90;99.90;;;;;;5021104;28;20719;-81
2021/10/10 05:40:17;;;;;;;10.97;6.90;;;6.90;99.90;;;;;;5020813;28;20208;-80
2021/10/10 05:42:43;;;;;;;8.63;5.90;;;6.90;99.90;;;;;;5021606;28;20158;-82
2021/10/10 05:45:10;;;;;;;8.57;7.37;;;6.90;99.90;;;;;;5021351;28;20166;-82
2021/10/10 05:47:37;;;;;;;7.90;6.47;;;6.80;99.90;;;;;;5024966;28;20393;-83
2021/10/10 05:50:05;;;;;;;9.90;7.60;;;6.80;99.90;;;;;;5021975;28;20439;-83
2021/10/10 05:52:31;;;;;;;10.07;7.40;;;6.90;99.90;;;;;;5024799;28;20408;-80
2021/10/10 05:54:57;;;;;;;11.67;6.70;;;6.90;99.90;;;;;;5024307;28;20411;-82
2021/10/10 05:57:34;;;;;;;13.40;6.97;;;6.90;99.90;;;;;;5023311;28;20401;-81
2021/10/10 06:00:06;;;;;;;9.60;6.97;;;6.80;99.90;;;;;;5040255;28;20196;-81
2021/10/10 06:02:33;;;;;;;6.73;5.70;;;6.90;99.90;;;;;;5023279;28;20739;-81
2021/10/10 06:04:59;;;;;;;10.70;7.70;;;6.90;99.90;;;;;;5027171;28;20400;-81
2021/10/10 06:07:24;;;;;;;11.93;7.40;;;6.80;99.90;;;;;;5021595;28;20397;-81
2021/10/10 06:09:50;;;;;;;7.10;6.37;;;7.00;99.90;;;;;;5019808;28;20200;-82
2021/10/10 06:12:16;;;;;;;9.40;7.80;;;7.00;99.90;;;;;;5020739;28;20256;-82
2021/10/10 06:14:42;;;;;;;13.27;7.40;;;7.00;99.90;;;;;;5020919;28;20486;-81
2021/10/10 06:17:08;;;;;;;14.53;6.57;;;6.90;99.90;;;;;;5020284;28;20229;-81
2021/10/10 06:19:36;;;;;;;12.33;7.90;;;6.90;99.90;;;;;;5020685;28;20193;-81
2021/10/10 06:22:02;;;;;;;13.77;7.07;;;6.90;99.90;;;;;;5019588;28;20193;-81
2021/10/10 06:24:27;;;;;;;10.53;7.47;;;6.90;99.90;;;;;;5018997;28;20400;-81
2021/10/10 06:26:53;;;;;;;11.90;7.17;;;6.90;99.90;;;;;;5019281;28;20393;-82
2021/10/10 06:29:19;;;;;;;11.07;6.47;;;7.00;99.90;;;;;;5034519;28;20483;-82
2021/10/10 06:31:45;;;;;;;9.63;7.40;;;6.90;99.90;;;;;;5020133;28;20213;-78
2021/10/10 06:34:10;;;;;;;10.93;8.03;;;7.00;99.90;;;;;;5020847;28;20589;-82
2021/10/10 06:36:36;;;;;;;11.20;7.03;;;7.00;99.90;;;;;;5020582;28;20162;-82
2021/10/10 06:39:02;;;;;;;11.43;7.30;;;7.00;99.90;;;;;;5020307;28;20166;-80
2021/10/10 06:41:28;;;;;;;10.07;6.40;;;7.00;99.90;;;;;;5019313;28;20526;-82
2021/10/10 06:43:54;;;;;;;8.63;7.07;;;7.00;99.90;;;;;;5018190;28;20154;-81
2021/10/10 06:46:20;;;;;;;7.50;6.70;;;7.00;99.90;;;;;;5018257;28;20248;-81
2021/10/10 06:48:45;;;;;;;7.53;6.23;;;7.00;99.90;;;;;;5018351;28;20161;-81
2021/10/10 06:51:11;;;;;;;9.50;7.53;;;7.00;99.90;;;;;;5002211;28;20158;-81
2021/10/10 06:53:37;;;;;;;10.37;6.97;;;7.00;99.90;;;;;;5019741;28;20956;-81
2021/10/10 06:56:04;;;;;;;6.40;5.87;;;7.10;99.90;;;;;;5019587;28;20169;-82
2021/10/10 06:58:31;;;;;;;9.33;6.90;;;6.90;99.90;;;;;;5018883;28;20177;-81
2021/10/10 07:00:57;;;;;;;12.53;7.60;;;7.00;99.90;;;;;;5019271;28;20447;-80
2021/10/10 07:03:22;;;;;;;9.20;6.90;;;7.00;99.90;;;;;;5018698;28;20411;-84
2021/10/10 07:05:48;;;;;;;11.10;8.20;;;6.80;99.90;;;;;;5019189;28;20158;-81
2021/10/10 07:08:14;;;;;;;14.00;7.87;;;6.90;99.90;;;;;;5018848;28;20162;-82
2021/10/10 07:10:42;;;;;;;8.77;7.53;;;6.70;99.90;;;;;;5018109;28;20188;-81
2021/10/10 07:13:08;;;;;;;9.00;6.07;;;6.50;99.90;;;;;;5018983;28;20748;-81
2021/10/10 07:15:34;;;;;;;7.60;6.70;;;6.30;99.90;;;;;;5018886;28;20168;-80
2021/10/10 07:18:04;;;;;;;11.17;5.90;;;6.70;99.90;;;;;;5018707;28;20208;-79
2021/10/10 07:25:58;;;;;;;9.80;6.50;;;7.50;99.90;;;;;;5019669;28;20442;-81
2021/10/10 07:28:24;;;;;;;18.43;6.77;;;7.70;99.90;;;;;;5020197;28;20420;-81
2021/10/10 07:30:51;;;;;;;10.07;6.83;;;7.70;99.90;;;;;;5029922;28;20471;-80
2021/10/10 07:33:19;;;;;;;13.00;8.53;;;7.90;99.90;;;;;;5029684;28;20594;-82
2021/10/10 07:35:45;;;;;;;9.10;6.80;;;8.00;99.90;;;;;;5018913;28;20397;-82
2021/10/10 07:38:11;;;;;;;11.47;7.20;;;8.10;99.90;;;;;;5017598;28;20850;-82
2021/10/10 07:40:36;;;;;;;8.93;6.70;;;8.20;99.90;;;;;;5018852;28;20460;-82
2021/10/10 07:43:03;;;;;;;8.63;6.70;;;8.30;99.90;;;;;;5018534;28;20216;-83
2021/10/10 07:45:31;;;;;;;10.90;6.33;;;8.30;99.90;;;;;;5018880;28;20385;-82
2021/10/10 07:48:02;;;;;;;7.40;6.70;;;8.40;99.90;;;;;;5017841;28;20497;-81
2021/10/10 07:50:29;;;;;;;10.30;6.90;;;8.40;99.90;;;;;;5017948;28;20393;-81
2021/10/10 07:52:55;;;;;;;9.00;6.77;;;8.30;99.90;;;;;;5019530;28;20389;-82
2021/10/10 07:55:21;;;;;;;8.13;7.03;;;8.40;99.90;;;;;;5020548;28;20404;-81
2021/10/10 07:57:47;;;;;;;12.30;7.53;;;8.50;99.90;;;;;;5020072;28;20291;-82
2021/10/10 08:00:13;;;;;;;8.40;7.17;;;8.60;99.90;;;;;;5019638;28;20189;-81
2021/10/10 08:02:56;;;;;;;7.17;6.10;;;8.70;99.90;;;;;;5018714;28;20495;-80
2021/10/10 08:05:24;;;;;;;11.33;6.53;;;8.70;99.90;;;;;;5019424;28;20403;-81
2021/10/10 08:07:51;;;;;;;10.30;6.97;;;8.80;99.90;;;;;;5018877;28;20723;-81
2021/10/10 08:10:17;;;;;;;19.20;8.87;;;9.10;99.90;;;;;;5020092;28;20404;-82
2021/10/10 08:12:44;;;;;;;13.23;8.20;;;9.30;99.90;;;;;;5019802;28;20405;-82
2021/10/10 08:15:10;;;;;;;14.60;7.00;;;9.60;99.90;;;;;;5037674;28;20392;-82
2021/10/10 08:17:36;;;;;;;14.67;7.97;;;10.10;99.90;;;;;;5030705;28;20404;-80
2021/10/10 08:20:04;;;;;;;10.17;7.80;;;10.50;99.90;;;;;;5030728;28;20840;-79
2021/10/10 08:22:33;;;;;;;12.07;7.80;;;10.60;99.90;;;;;;5030486;28;20491;-80
2021/10/10 08:24:59;;;;;;;11.30;8.93;;;10.90;99.90;;;;;;5045904;28;20384;-81
2021/10/10 08:27:25;;;;;;;9.07;7.37;;;11.50;99.90;;;;;;5027222;28;20404;-81
2021/10/10 08:29:51;;;;;;;11.00;8.40;;;11.00;99.90;;;;;;5009292;28;20404;-79
2021/10/10 08:32:17;;;;;;;9.90;7.10;;;11.20;99.90;;;;;;5027794;28;20259;-79
2021/10/10 08:34:43;;;;;;;9.47;7.40;;;11.40;99.90;;;;;;5025503;28;20188;-83
2021/10/10 08:37:09;;;;;;;16.40;7.77;;;11.20;99.90;;;;;;5027745;28;20204;-80
2021/10/10 08:39:35;;;;;;;7.23;6.47;;;12.00;99.90;;;;;;5029363;28;20400;-82
2021/10/10 08:42:03;;;;;;;8.70;7.20;;;12.50;99.90;;;;;;5027021;28;20192;-81
2021/10/10 08:44:36;;;;;;;11.10;6.77;;;12.80;99.90;;;;;;5030665;28;20428;-79
2021/10/10 08:47:05;;;;;;;11.97;7.03;;;13.10;99.90;;;;;;5029934;28;20399;-82
2021/10/10 08:49:30;;;;;;;12.60;8.20;;;12.70;99.90;;;;;;5026897;28;20400;-81
2021/10/10 08:51:56;;;;;;;10.43;7.07;;;13.40;99.90;;;;;;5028455;28;20461;-82
2021/10/10 08:54:22;;;;;;;11.17;6.97;;;13.60;99.90;;;;;;5020871;28;20255;-81
2021/10/10 08:56:50;;;;;;;9.80;8.30;;;14.00;99.90;;;;;;5033694;28;20497;-83
2021/10/10 08:59:19;;;;;;;9.33;6.93;;;14.10;99.90;;;;;;5019764;28;20169;-82
2021/10/10 09:01:47;;;;;;;9.93;7.97;;;14.30;99.90;;;;;;5021288;28;20495;-82
2021/10/10 09:04:12;;;;;;;12.30;7.23;;;14.50;99.90;;;;;;5020305;28;20564;-82
2021/10/10 09:06:40;;;;;;;10.30;7.20;;;15.10;99.90;;;;;;5022425;28;20408;-82
2021/10/10 09:09:27;;;;;;;9.17;7.03;;;15.50;99.90;;;;;;5037603;28;20157;-81
2021/10/10 09:11:59;;;;;;;11.90;7.40;;;15.30;99.90;;;;;;5021352;28;20423;-82
2021/10/10 09:14:27;;;;;;;11.20;7.10;;;15.50;99.90;;;;;;5021786;28;20448;-82
2021/10/10 09:17:10;;;;;;;10.67;7.50;;;15.80;99.90;;;;;;5022720;28;20393;-82
2021/10/10 09:19:39;;;;;;;9.40;7.93;;;16.10;99.90;;;;;;5022911;28;20471;-82
2021/10/10 09:22:06;;;;;;;11.93;7.30;;;16.30;99.90;;;;;;5021377;28;20420;-82
2021/10/10 09:24:34;;;;;;;10.90;8.07;;;16.60;99.90;;;;;;5022155;28;20447;-82
2021/10/10 09:27:04;;;;;;;13.37;7.40;;;17.20;99.90;;;;;;5022964;28;20400;-81
2021/10/10 09:29:34;;;;;;;7.40;6.70;;;18.50;99.90;;;;;;5022614;28;20451;-81
2021/10/10 09:32:08;;;;;;;10.47;7.87;;;19.60;99.90;;;;;;5020604;28;20460;-82
2021/10/10 09:34:37;;;;;;;8.97;7.07;;;18.30;96.70;;;;;;5022238;28;20431;-82
2021/10/10 09:37:07;;;;;;;9.30;7.57;;;19.40;98.90;;;;;;5021634;28;20396;-82
2021/10/10 09:39:38;;;;;;;13.40;7.93;;;20.60;96.40;;;;;;5037245;28;20404;-81
2021/10/10 09:42:04;;;;;;;10.77;7.40;;;20.80;98.30;;;;;;5036918;28;20392;-80
2021/10/10 09:44:44;;;;;;;9.37;8.00;;;20.90;94.80;;;;;;5003979;28;20393;-81
2021/10/10 09:47:11;;;;;;;8.90;7.60;;;20.40;95.70;;;;;;5022255;28;20495;-83
2021/10/10 09:49:38;;;;;;;10.90;7.50;;;19.90;95.00;;;;;;5021116;28;20404;-82
2021/10/10 09:52:18;;;;;;;13.67;7.97;;;19.10;91.30;;;;;;5077538;28;20485;-83
2021/10/10 09:54:50;;;;;;;7.23;6.53;;;17.90;91.90;;;;;;5079096;28;20508;-82
2021/10/10 09:57:16;;;;;;;9.50;8.70;;;17.10;93.00;;;;;;5079524;28;20796;-82
2021/10/10 09:59:42;;;;;;;10.40;7.80;;;17.10;93.90;;;;;;5079762;28;20437;-83
2021/10/10 10:02:08;;;;;;;7.73;6.70;;;17.90;94.40;;;;;;5078052;28;20427;-82
2021/10/10 10:04:50;;;;;;;13.17;8.70;;;17.30;94.20;;;;;;5077372;28;20437;-82
2021/10/10 10:07:20;;;;;;;14.27;8.07;;;16.40;95.50;;;;;;5079718;28;20183;-81
2021/10/10 10:09:50;;;;;;;14.00;7.97;;;16.80;98.40;;;;;;5062984;28;20410;-82
2021/10/10 10:12:19;;;;;;;11.47;7.73;;;17.10;95.70;;;;;;5077921;28;20406;-81
2021/10/10 10:14:51;;;;;;;10.17;7.10;;;16.90;96.10;;;;;;5078755;28;20493;-82
2021/10/10 10:17:18;;;;;;;8.33;7.33;;;17.60;93.90;;;;;;5079192;28;20413;-80
2021/10/10 10:19:46;;;;;;;9.40;7.27;;;18.10;94.70;;;;;;5079851;28;20502;-83
2021/10/10 10:22:16;;;;;;;9.27;6.83;;;16.60;95.20;;;;;;5070009;28;20435;-82
2021/10/10 10:24:45;;;;;;;8.00;6.63;;;16.80;95.50;;;;;;5020840;28;20404;-82
2021/10/10 10:27:13;;;;;;;8.47;7.17;;;17.80;93.60;;;;;;5021834;28;20397;-82
2021/10/10 10:29:42;;;;;;;9.17;7.10;;;18.10;91.40;;;;;;5022696;28;20404;-80
2021/10/10 10:32:09;;;;;;;8.47;6.40;;;17.10;92.80;;;;;;5019126;28;20914;-81
2021/10/10 10:34:36;;;;;;;7.67;6.60;;;16.40;94.30;;;;;;5019485;28;20491;-82
2021/10/10 10:37:07;;;;;;;8.87;7.10;;;17.10;94.90;;;;;;5020008;28;20662;-82
2021/10/10 10:39:38;;;;;;;8.50;7.40;;;18.10;95.20;;;;;;5019188;28;20396;-83
2021/10/10 10:42:08;;;;;;;13.10;8.27;;;19.80;90.20;;;;;;5019065;28;20483;-82
2021/10/10 10:44:40;;;;;;;8.40;7.60;;;20.40;90.60;;;;;;5002055;28;20440;-82
2021/10/10 10:47:10;;;;;;;10.23;9.23;;;20.20;90.00;;;;;;5021734;28;20385;-82
2021/10/10 10:49:59;;;;;;;8.17;6.93;;;19.90;85.80;;;;;;5023698;28;20389;-82
2021/10/10 10:52:42;;;;;;;9.93;7.70;;;19.30;84.60;;;;;;5017992;28;20851;-82
2021/10/10 10:55:22;;;;;;;9.23;8.00;;;20.10;82.00;;;;;;5018206;28;20850;-81
2021/10/10 10:57:54;;;;;;;9.10;8.13;;;19.90;81.10;;;;;;5018746;28;20419;-82
2021/10/10 11:00:27;;;;;;;8.20;7.40;;;20.30;80.60;;;;;;5019337;28;20440;-82
2021/10/10 11:03:02;;;;;;;9.40;6.80;;;20.10;80.30;;;;;;5018847;28;20741;-80
2021/10/10 11:05:37;;;;;;;12.07;7.30;;;20.40;84.80;;;;;;5018371;28;20467;-82
2021/10/10 11:08:07;;;;;;;11.83;7.13;;;20.70;78.10;;;;;;5019128;28;20400;-82
2021/10/10 11:10:35;;;;;;;10.93;6.70;;;21.60;84.00;;;;;;5019139;28;20400;-82
2021/10/10 11:13:23;;;;;;;12.93;7.80;;;23.10;75.40;;;;;;5018617;28;20896;-82
2021/10/10 11:15:52;;;;;;;11.07;8.20;;;22.60;74.90;;;;;;5018931;28;20400;-81
2021/10/10 11:18:20;;;;;;;11.20;7.90;;;22.00;71.70;;;;;;5017585;28;20400;-83
2021/10/10 11:20:55;;;;;;;9.33;7.00;;;21.90;73.00;;;;;;5018763;28;20460;-83
2021/10/10 11:23:23;;;;;;;9.00;6.60;;;21.30;71.20;;;;;;5019126;28;20398;-82
2021/10/10 11:25:51;;;;;;;10.03;6.20;;;22.80;66.20;;;;;;5017503;28;20672;-82
2021/10/10 11:28:18;;;;;;;6.60;6.00;;;24.00;64.20;;;;;;5018729;28;20454;-81
2021/10/10 11:30:45;;;;;;;9.80;6.63;;;20.00;65.70;;;;;;5015573;28;20408;-82
2021/10/10 11:33:13;;;;;;;8.43;6.60;;;17.00;72.60;;;;;;5017625;28;20609;-81
2021/10/10 11:35:43;;;;;;;9.33;7.43;;;19.00;75.30;;;;;;5016272;28;20404;-82
2021/10/10 11:38:12;;;;;;;9.20;6.70;;;21.00;72.70;;;;;;5015777;28;20480;-82
2021/10/10 11:40:56;;;;;;;19.20;7.73;;;23.20;67.90;;;;;;5017950;28;20787;-81
2021/10/10 11:43:23;;;;;;;6.97;6.27;;;22.70;68.40;;;;;;5023100;28;20392;-82
2021/10/10 11:45:57;;;;;;;9.17;6.70;;;24.20;61.20;;;;;;5017753;28;20469;-81
2021/10/10 11:48:33;;;;;;;6.87;6.00;;;23.50;64.40;;;;;;5019446;28;20414;-82
2021/10/10 11:51:00;;;;;;;7.00;5.93;;;25.40;59.80;;;;;;5019380;28;20918;-82
2021/10/10 11:53:37;;;;;;;8.23;6.70;;;25.70;57.40;;;;;;5001692;28;20795;-82
2021/10/10 11:56:03;;;;;;;15.40;7.03;;;25.00;57.60;;;;;;5032145;28;20399;-82
2021/10/10 11:58:31;;;;;;;7.00;6.30;;;24.40;57.70;;;;;;5017072;28;20585;-82
2021/10/10 12:01:09;;;;;;;6.87;6.20;;;20.90;59.80;;;;;;4999954;28;20436;-82
2021/10/10 12:03:41;;;;;;;7.40;6.57;;;21.80;61.70;;;;;;5017742;28;20487;-81
2021/10/10 12:06:16;;;;;;;8.13;6.57;;;20.30;61.00;;;;;;5016483;28;20399;-82
2021/10/10 12:08:42;;;;;;;9.10;6.30;;;19.50;62.10;;;;;;5021031;28;20396;-81
2021/10/10 12:11:09;;;;;;;10.13;9.13;;;20.50;64.90;;;;;;5020563;28;20471;-82
2021/10/10 12:13:35;;;;;;;14.30;8.73;;;19.50;65.70;;;;;;5020930;28;20196;-80
2021/10/10 12:16:03;;;;;;;8.23;6.70;;;19.70;67.00;;;;;;5020324;28;20396;-83
2021/10/10 12:18:32;;;;;;;8.57;6.40;;;18.80;66.40;;;;;;5020053;28;20622;-79
2021/10/10 12:21:27;;;;;;;6.27;5.67;;;18.90;68.10;;;;;;4998736;28;20546;-82
2021/10/10 12:24:07;;;;;;;7.40;6.70;;;18.30;66.20;;;;;;5018459;28;20729;-83
2021/10/10 12:26:51;;;;;;;7.33;6.50;;;19.20;66.40;;;;;;5018701;28;20414;-84
2021/10/10 12:29:20;;;;;;;7.13;6.37;;;20.80;68.50;;;;;;5018777;28;20412;-83
2021/10/10 12:31:46;;;;;;;7.50;6.80;;;22.20;60.90;;;;;;5017748;28;20455;-83
2021/10/10 12:34:12;;;;;;;6.00;5.40;;;19.90;61.10;;;;;;5016896;28;20407;-83
2021/10/10 12:36:47;;;;;;;6.97;6.33;;;20.90;61.50;;;;;;5018310;28;20173;-83
2021/10/10 12:39:14;;;;;;;8.43;6.13;;;20.30;59.80;;;;;;5017425;28;20168;-82
2021/10/10 12:41:40;;;;;;;10.47;8.80;;;18.30;60.80;;;;;;5015136;28;20439;-83
2021/10/10 12:44:15;;;;;;;6.67;6.00;;;20.90;63.70;;;;;;5017688;28;20400;-83
2021/10/10 12:46:47;;;;;;;6.57;5.87;;;23.10;58.30;;;;;;5018600;28;20180;-82
2021/10/10 12:49:13;;;;;;;7.23;5.97;;;23.10;57.50;;;;;;5019005;28;20380;-83
2021/10/10 12:51:58;;;;;;;8.10;6.27;;;23.30;58.40;;;;;;5020644;28;20408;-83
2021/10/10 12:54:26;;;;;;;8.23;6.33;;;22.50;61.60;;;;;;5015668;28;20185;-83